createdAt,value
2022-11-13T00:02:38.968Z,16.47
2022-11-13T00:05:44.108Z,16.03
2022-11-13T00:08:48.918Z,17.43
2022-11-13T00:11:52.549Z,14.73
2022-11-13T00:14:56.163Z,14.53
2022-11-13T00:18:02.979Z,14.63
2022-11-13T00:21:09.975Z,14.00
2022-11-13T00:24:13.581Z,13.70
2022-11-13T00:27:17.274Z,13.27
2022-11-13T00:30:20.928Z,12.90
2022-11-13T00:33:45.522Z,13.93
2022-11-13T00:36:49.433Z,13.50
2022-11-13T00:39:58.462Z,11.97
2022-11-13T00:43:03.085Z,11.50
2022-11-13T00:46:08.136Z,12.10
2022-11-13T00:49:13.183Z,11.90
2022-11-13T00:52:18.211Z,13.03
2022-11-13T00:55:21.952Z,11.73
2022-11-13T00:58:25.704Z,11.27
2022-11-13T01:01:29.496Z,11.97
2022-11-13T01:04:33.144Z,11.50
2022-11-13T01:07:38.973Z,10.87
2022-11-13T01:10:51.883Z,10.00
2022-11-13T01:13:58.290Z,10.87
2022-11-13T01:17:02.211Z,11.70
2022-11-13T01:20:07.301Z,11.00
2022-11-13T01:23:12.370Z,9.97
2022-11-13T01:26:19.682Z,10.40
2022-11-13T01:29:23.320Z,10.07
2022-11-13T01:32:26.858Z,9.47
2022-11-13T01:35:30.425Z,11.00
2022-11-13T01:38:36.851Z,9.40
2022-11-13T01:41:41.548Z,9.90
2022-11-13T01:44:51.454Z,9.50
2022-11-13T01:47:55.139Z,8.93
2022-11-13T01:50:59.582Z,10.03
2022-11-13T01:54:10.940Z,9.50
2022-11-13T01:57:17.153Z,10.37
2022-11-13T02:00:20.945Z,10.30
2022-11-13T02:03:24.542Z,9.37
2022-11-13T02:06:34.413Z,10.03
2022-11-13T02:09:43.570Z,10.23
2022-11-13T02:12:52.912Z,9.43
2022-11-13T02:15:58.246Z,9.97
2022-11-13T02:19:04.603Z,9.53
2022-11-13T02:22:20.141Z,9.70
2022-11-13T02:25:29.314Z,10.27
2022-11-13T02:28:32.933Z,10.70
2022-11-13T02:31:36.906Z,11.07
2022-11-13T02:34:40.454Z,10.30
2022-11-13T02:37:44.273Z,9.90
2022-11-13T02:40:49.318Z,10.10
2022-11-13T02:43:52.945Z,9.73
2022-11-13T02:46:56.549Z,10.47
2022-11-13T02:50:00.180Z,10.10
2022-11-13T02:53:04.343Z,10.43
2022-11-13T02:56:10.270Z,11.07
2022-11-13T02:59:13.816Z,11.13
2022-11-13T03:02:17.467Z,9.80
2022-11-13T03:05:21.555Z,10.00
2022-11-13T03:08:26.078Z,10.63
2022-11-13T03:11:31.290Z,9.37
2022-11-13T03:14:34.854Z,9.20
2022-11-13T03:17:38.667Z,9.47
2022-11-13T03:20:45.069Z,9.47
2022-11-13T03:23:48.792Z,9.37
2022-11-13T03:26:53.748Z,8.63
2022-11-13T03:29:57.351Z,8.17
2022-11-13T03:33:01.055Z,8.23
2022-11-13T03:36:05.118Z,8.70
2022-11-13T03:39:08.754Z,8.73
2022-11-13T03:42:13.750Z,9.43
2022-11-13T03:45:17.619Z,8.80
2022-11-13T03:48:21.220Z,7.93
2022-11-13T03:51:24.831Z,8.20
2022-11-13T03:54:28.427Z,10.23
2022-11-13T03:57:33.483Z,8.77
2022-11-13T04:00:37.677Z,9.60
2022-11-13T04:03:41.205Z,8.97
2022-11-13T04:06:44.809Z,9.53
2022-11-13T04:09:48.441Z,9.17
2022-11-13T04:12:53.424Z,8.93
2022-11-13T04:15:56.936Z,9.00
2022-11-13T04:19:00.505Z,10.10
2022-11-13T04:22:04.112Z,10.43
2022-11-13T04:25:09.617Z,9.93
2022-11-13T04:28:14.522Z,9.50
2022-11-13T04:31:18.098Z,10.83
2022-11-13T04:34:21.765Z,10.87
2022-11-13T04:37:25.420Z,10.93
2022-11-13T04:40:29.059Z,10.80
2022-11-13T04:43:32.969Z,12.10
2022-11-13T04:46:36.644Z,12.03
2022-11-13T04:49:40.222Z,12.17
2022-11-13T04:52:44.683Z,11.83
2022-11-13T04:55:48.301Z,12.23
2022-11-13T04:58:53.343Z,12.03
2022-11-13T05:01:56.960Z,12.60
2022-11-13T05:05:04.918Z,12.60
2022-11-13T05:08:08.670Z,12.33
2022-11-13T05:11:12.320Z,12.77
2022-11-13T05:14:17.359Z,12.97
2022-11-13T05:17:20.892Z,12.20
2022-11-13T05:20:24.538Z,12.67
2022-11-13T05:23:28.171Z,12.67
2022-11-13T05:26:32.482Z,12.23
2022-11-13T05:29:37.482Z,13.87
2022-11-13T05:32:41.113Z,13.60
2022-11-13T05:35:44.766Z,13.50
2022-11-13T05:38:48.729Z,13.70
2022-11-13T05:41:52.430Z,13.50
2022-11-13T05:44:57.358Z,14.23
2022-11-13T05:48:01.005Z,13.30
2022-11-13T05:51:08.211Z,14.00
2022-11-13T05:54:12.959Z,13.47
2022-11-13T05:57:16.749Z,14.37
2022-11-13T06:00:22.273Z,14.70
2022-11-13T06:03:26.172Z,14.30
2022-11-13T06:06:31.823Z,14.27
2022-11-13T06:09:35.414Z,13.80
2022-11-13T06:12:38.982Z,14.67
2022-11-13T06:15:44.071Z,13.57
2022-11-13T06:18:49.010Z,15.43
2022-11-13T06:21:52.862Z,14.70
2022-11-13T06:24:56.593Z,14.00
2022-11-13T06:28:00.168Z,13.67
2022-11-13T06:31:07.903Z,13.80
2022-11-13T06:34:11.522Z,14.67
2022-11-13T06:37:15.154Z,15.23
2022-11-13T06:40:19.084Z,14.47
2022-11-13T06:43:25.117Z,14.63
2022-11-13T06:46:31.137Z,15.13
2022-11-13T06:49:34.937Z,14.00
2022-11-13T06:52:38.487Z,13.97
2022-11-13T06:55:45.721Z,14.33
2022-11-13T06:58:49.738Z,14.00
2022-11-13T07:01:54.792Z,13.00
2022-11-13T07:04:58.412Z,12.27
2022-11-13T07:08:02.045Z,13.03
2022-11-13T07:11:07.739Z,13.10
2022-11-13T07:14:13.013Z,14.03
2022-11-13T07:17:18.070Z,13.80
2022-11-13T07:20:21.593Z,13.53
2022-11-13T07:23:25.477Z,13.33
2022-11-13T07:26:29.086Z,15.27
2022-11-13T07:29:32.679Z,14.87
2022-11-13T07:32:37.784Z,15.23
2022-11-13T07:35:41.577Z,15.03
2022-11-13T07:38:45.292Z,14.97
2022-11-13T07:41:49.561Z,15.83
2022-11-13T07:44:54.937Z,16.07
2022-11-13T07:48:04.898Z,15.03
2022-11-13T07:51:08.671Z,15.73
2022-11-13T07:54:13.914Z,15.43
2022-11-13T07:57:18.995Z,16.20
2022-11-13T08:00:22.779Z,17.10
2022-11-13T08:03:27.819Z,15.63
2022-11-13T08:06:31.377Z,16.87
2022-11-13T08:09:34.985Z,14.80
2022-11-13T08:12:38.633Z,16.83
2022-11-13T08:15:42.787Z,16.73
2022-11-13T08:18:47.743Z,15.93
2022-11-13T08:21:51.286Z,16.67
2022-11-13T08:24:55.140Z,16.27
2022-11-13T08:27:58.822Z,15.07
2022-11-13T08:31:03.679Z,14.60
2022-11-13T08:34:08.621Z,16.17
2022-11-13T08:37:12.644Z,15.23
2022-11-13T08:40:16.955Z,16.47
2022-11-13T08:43:23.306Z,15.90
2022-11-13T08:46:26.845Z,16.10
2022-11-13T08:49:31.846Z,15.70
2022-11-13T08:52:35.669Z,16.23
2022-11-13T08:55:39.430Z,16.37
2022-11-13T08:58:43.029Z,16.47
2022-11-13T09:01:46.669Z,15.90
2022-11-13T09:04:51.657Z,16.87
2022-11-13T09:07:58.679Z,16.20
2022-11-13T09:11:05.384Z,15.77
2022-11-13T09:14:08.962Z,15.90
2022-11-13T09:17:12.768Z,15.63
2022-11-13T09:20:22.739Z,14.03
2022-11-13T09:23:30.024Z,14.53
2022-11-13T09:26:33.550Z,15.10
2022-11-13T09:29:37.154Z,16.00
2022-11-13T09:32:40.898Z,17.33
2022-11-13T09:35:46.033Z,16.47
2022-11-13T09:38:49.688Z,18.63
2022-11-13T09:42:02.826Z,16.80
2022-11-13T09:45:14.229Z,16.93
2022-11-13T09:48:30.543Z,17.37
2022-11-13T09:51:39.775Z,14.13
2022-11-13T09:54:43.554Z,16.07
2022-11-13T09:57:55.346Z,15.10
2022-11-13T10:01:02.464Z,14.47
2022-11-13T10:04:14.445Z,13.90
2022-11-13T10:07:36.509Z,14.63
2022-11-13T10:10:55.543Z,13.47
2022-11-13T10:14:04.837Z,14.67
2022-11-13T10:17:20.277Z,15.17
2022-11-13T10:20:31.101Z,15.03
2022-11-13T10:23:39.668Z,13.50
2022-11-13T10:26:43.290Z,13.73
2022-11-13T10:29:49.141Z,14.17
2022-11-13T10:32:53.807Z,13.00
2022-11-13T10:36:06.706Z,13.40
2022-11-13T10:39:12.079Z,13.73
2022-11-13T10:42:24.895Z,13.83
2022-11-13T10:45:28.690Z,12.27
2022-11-13T10:48:36.256Z,13.37
2022-11-13T10:51:40.678Z,13.33
2022-11-13T10:54:45.877Z,12.87
2022-11-13T10:57:57.729Z,12.73
2022-11-13T11:01:01.434Z,12.60
2022-11-13T11:04:05.944Z,12.20
2022-11-13T11:07:21.510Z,14.80
2022-11-13T11:10:32.890Z,15.10
2022-11-13T11:13:36.479Z,15.27
2022-11-13T11:16:41.052Z,13.70
2022-11-13T11:20:01.961Z,13.73
2022-11-13T11:23:21.603Z,15.57
2022-11-13T11:26:35.175Z,12.33
2022-11-13T11:29:46.414Z,14.37
2022-11-13T11:33:01.896Z,13.40
2022-11-13T11:36:29.393Z,11.57
2022-11-13T11:39:39.563Z,11.93
2022-11-13T11:42:54.875Z,12.13
2022-11-13T11:45:58.599Z,11.50
2022-11-13T11:49:03.334Z,11.07
2022-11-13T11:52:38.302Z,10.67
2022-11-13T11:56:06.002Z,13.93
2022-11-13T11:59:51.411Z,11.40
2022-11-13T12:03:40.581Z,9.07
2022-11-13T12:07:06.500Z,9.33
2022-11-13T12:10:35.822Z,10.07
2022-11-13T12:13:53.775Z,8.53
2022-11-13T12:17:27.856Z,9.20
2022-11-13T12:20:42.930Z,9.20
2022-11-13T12:24:12.727Z,9.10
2022-11-13T12:27:30.813Z,9.63
2022-11-13T12:30:47.694Z,10.17
2022-11-13T12:34:06.888Z,7.53
2022-11-13T12:37:17.438Z,7.87
2022-11-13T12:40:31.242Z,25.13
2022-11-13T12:43:59.015Z,6.97
2022-11-13T12:47:04.937Z,7.00
2022-11-13T12:50:31.830Z,7.93
2022-11-13T12:53:49.812Z,8.13
2022-11-13T12:56:53.448Z,7.83
2022-11-13T13:00:00.575Z,7.77
2022-11-13T13:03:28.616Z,10.43
2022-11-13T13:06:56.454Z,9.83
2022-11-13T13:10:17.729Z,8.77
2022-11-13T13:13:32.895Z,9.17
2022-11-13T13:16:37.054Z,10.80
2022-11-13T13:19:41.009Z,9.10
2022-11-13T13:22:58.130Z,10.80
2022-11-13T13:26:08.201Z,9.97
2022-11-13T13:29:22.118Z,8.80
2022-11-13T13:32:41.722Z,10.53
2022-11-13T13:35:56.346Z,12.93
2022-11-13T13:39:13.354Z,40.47
2022-11-13T13:42:44.486Z,13.33
2022-11-13T13:46:02.325Z,13.13
2022-11-13T13:49:14.494Z,24.10
2022-11-13T13:52:22.855Z,20.00
2022-11-13T13:55:33.898Z,11.97
2022-11-13T13:58:40.870Z,19.70
2022-11-13T14:01:58.342Z,8.93
2022-11-13T14:05:02.126Z,14.87
2022-11-13T14:08:17.928Z,16.97
2022-11-13T14:11:27.314Z,11.50
2022-11-13T14:14:31.607Z,9.83
2022-11-13T14:17:35.637Z,9.40
2022-11-13T14:20:49.909Z,9.53
2022-11-13T14:23:55.488Z,9.17
2022-11-13T14:27:03.542Z,8.80
2022-11-13T14:30:23.891Z,9.50
2022-11-13T14:33:36.620Z,9.17
2022-11-13T14:36:41.593Z,9.30
2022-11-13T14:39:49.965Z,9.27
2022-11-13T14:43:00.874Z,11.33
2022-11-13T14:46:07.887Z,11.53
2022-11-13T14:49:16.445Z,10.13
2022-11-13T14:52:26.362Z,11.20
2022-11-13T14:55:33.584Z,12.03
2022-11-13T14:58:43.815Z,13.47
2022-11-13T15:01:56.183Z,13.97
2022-11-13T15:04:59.766Z,13.97
2022-11-13T15:08:03.458Z,14.97
2022-11-13T15:11:07.273Z,13.77
2022-11-13T15:14:15.895Z,18.93
2022-11-13T15:17:22.232Z,16.77
2022-11-13T15:20:29.765Z,17.77
2022-11-13T15:23:33.366Z,14.87
2022-11-13T15:26:37.000Z,14.27
2022-11-13T15:29:41.957Z,14.57
2022-11-13T15:32:49.139Z,17.03
2022-11-13T15:35:52.719Z,16.57
2022-11-13T15:38:56.454Z,15.87
2022-11-13T15:42:00.017Z,15.97
2022-11-13T15:45:07.310Z,16.70
2022-11-13T15:48:11.383Z,17.20
2022-11-13T15:51:21.789Z,18.47
2022-11-13T15:54:32.404Z,19.23
2022-11-13T15:57:37.844Z,19.87
2022-11-13T16:00:43.063Z,19.30
2022-11-13T16:03:46.653Z,18.57
2022-11-13T16:06:50.419Z,19.90
2022-11-13T16:09:54.082Z,20.30
2022-11-13T16:12:57.756Z,20.57
2022-11-13T16:16:03.036Z,20.77
2022-11-13T16:19:14.471Z,21.07
2022-11-13T16:22:20.814Z,20.60
2022-11-13T16:25:24.554Z,19.63
2022-11-13T16:28:31.534Z,20.23
2022-11-13T16:31:41.615Z,19.97
2022-11-13T16:34:45.935Z,19.67
2022-11-13T16:37:49.541Z,20.30
2022-11-13T16:40:53.108Z,18.77
2022-11-13T16:43:56.631Z,20.70
2022-11-13T16:47:02.024Z,22.47
2022-11-13T16:50:13.906Z,42.10
2022-11-13T16:53:17.705Z,29.17
2022-11-13T16:56:29.164Z,26.23
2022-11-13T16:59:33.159Z,24.40
2022-11-13T17:02:38.146Z,25.53
2022-11-13T17:05:41.700Z,19.80
2022-11-13T17:08:45.325Z,19.13
2022-11-13T17:11:49.056Z,17.93
2022-11-13T17:14:52.699Z,19.93
2022-11-13T17:18:05.745Z,20.53
2022-11-13T17:21:09.605Z,23.27
2022-11-13T17:24:15.707Z,25.57
2022-11-13T17:27:19.894Z,19.53
2022-11-13T17:30:23.894Z,22.17
2022-11-13T17:33:34.349Z,34.10
2022-11-13T17:36:38.086Z,17.67
2022-11-13T17:39:41.725Z,16.57
2022-11-13T17:42:48.077Z,17.90
2022-11-13T17:45:52.801Z,17.10
2022-11-13T17:48:59.089Z,16.13
2022-11-13T17:52:05.920Z,17.20
2022-11-13T17:55:12.541Z,17.97
2022-11-13T17:58:17.760Z,17.17
2022-11-13T18:01:23.676Z,15.90
2022-11-13T18:04:28.686Z,14.97
2022-11-13T18:07:32.713Z,18.60
2022-11-13T18:10:38.820Z,18.03
2022-11-13T18:13:42.818Z,17.87
2022-11-13T18:16:46.598Z,17.17
2022-11-13T18:19:55.994Z,15.70
2022-11-13T18:23:03.223Z,18.37
2022-11-13T18:26:13.029Z,15.73
2022-11-13T18:29:16.639Z,16.43
2022-11-13T18:32:20.186Z,16.30
2022-11-13T18:35:25.167Z,17.53
2022-11-13T18:38:28.808Z,17.00
2022-11-13T18:41:33.682Z,21.03
2022-11-13T18:44:37.454Z,16.33
2022-11-13T18:47:41.123Z,15.87
2022-11-13T18:50:57.036Z,16.33
2022-11-13T18:54:03.261Z,14.93
2022-11-13T18:57:09.169Z,14.87
2022-11-13T19:00:14.399Z,16.97
2022-11-13T19:03:18.157Z,15.73
2022-11-13T19:06:25.065Z,14.83
2022-11-13T19:09:28.692Z,16.40
2022-11-13T19:12:32.358Z,14.43
2022-11-13T19:15:38.057Z,15.23
2022-11-13T19:18:44.301Z,14.27
2022-11-13T19:21:50.289Z,15.10
2022-11-13T19:24:53.946Z,15.20
2022-11-13T19:27:57.543Z,14.47
2022-11-13T19:31:01.105Z,14.60
2022-11-13T19:34:08.300Z,16.03
2022-11-13T19:37:18.730Z,14.83
2022-11-13T19:40:22.789Z,15.57
2022-11-13T19:43:26.345Z,15.97
2022-11-13T19:46:32.113Z,16.13
2022-11-13T19:49:41.228Z,19.83
2022-11-13T19:52:46.163Z,18.70
2022-11-13T19:55:56.278Z,17.60
2022-11-13T19:58:59.894Z,17.10
2022-11-13T20:02:03.532Z,17.30
2022-11-13T20:05:07.875Z,17.07
2022-11-13T20:08:13.927Z,17.70
2022-11-13T20:11:17.826Z,17.10
2022-11-13T20:14:21.450Z,18.60
2022-11-13T20:17:25.199Z,16.67
2022-11-13T20:20:28.962Z,17.27
2022-11-13T20:23:35.373Z,18.43
2022-11-13T20:26:39.115Z,19.27
2022-11-13T20:29:42.727Z,17.40
2022-11-13T20:32:46.347Z,18.23
2022-11-13T20:35:55.347Z,19.57
2022-11-13T20:39:01.238Z,19.33
2022-11-13T20:42:07.114Z,20.23
2022-11-13T20:45:11.588Z,20.30
2022-11-13T20:48:15.269Z,21.40
2022-11-13T20:51:22.729Z,20.67
2022-11-13T20:54:28.056Z,20.27
2022-11-13T20:57:33.595Z,20.40
2022-11-13T21:00:40.407Z,19.50
2022-11-13T21:03:46.865Z,21.47
2022-11-13T21:06:52.337Z,20.03
2022-11-13T21:09:57.373Z,21.27
2022-11-13T21:13:00.923Z,21.00
2022-11-13T21:16:07.334Z,20.87
2022-11-13T21:19:11.305Z,21.37
2022-11-13T21:22:14.871Z,21.03
2022-11-13T21:25:19.897Z,21.90
2022-11-13T21:28:25.304Z,21.40
2022-11-13T21:31:30.787Z,21.93
2022-11-13T21:34:34.329Z,21.57
2022-11-13T21:37:37.881Z,22.70
2022-11-13T21:40:42.887Z,22.07
2022-11-13T21:43:46.428Z,22.00
2022-11-13T21:46:50.163Z,21.37
2022-11-13T21:49:53.672Z,20.90
2022-11-13T21:52:57.354Z,20.47
2022-11-13T21:56:02.313Z,20.60
2022-11-13T21:59:06.710Z,21.73
2022-11-13T22:02:12.524Z,22.77
2022-11-13T22:05:16.440Z,21.90
2022-11-13T22:08:20.087Z,22.50
2022-11-13T22:11:25.714Z,21.40
2022-11-13T22:14:29.275Z,22.13
2022-11-13T22:17:33.055Z,22.33
2022-11-13T22:20:36.674Z,21.97
2022-11-13T22:23:40.846Z,21.47
2022-11-13T22:26:47.868Z,21.90
2022-11-13T22:29:51.563Z,22.00
2022-11-13T22:32:55.131Z,22.03
2022-11-13T22:36:04.111Z,21.43
2022-11-13T22:39:07.874Z,23.57
2022-11-13T22:42:12.877Z,21.83
2022-11-13T22:45:23.822Z,22.07
2022-11-13T22:48:28.228Z,22.83
2022-11-13T22:51:35.109Z,22.67
2022-11-13T22:54:38.706Z,22.93
2022-11-13T22:57:43.647Z,22.20
2022-11-13T23:00:47.186Z,22.77
2022-11-13T23:03:52.891Z,24.30
2022-11-13T23:06:56.604Z,23.33
2022-11-13T23:10:00.195Z,24.07
2022-11-13T23:13:05.247Z,24.07
2022-11-13T23:16:09.057Z,24.83
2022-11-13T23:19:12.923Z,24.87
2022-11-13T23:22:16.459Z,24.63
2022-11-13T23:25:20.029Z,23.30
2022-11-13T23:28:25.242Z,24.57
2022-11-13T23:31:28.906Z,24.30
2022-11-13T23:34:57.985Z,25.33
2022-11-13T23:37:56.257Z,24.53
2022-11-13T23:41:01.900Z,24.70
2022-11-13T23:44:09.244Z,24.50
2022-11-13T23:47:13.257Z,25.17
2022-11-13T23:50:17.087Z,26.43
2022-11-13T23:53:20.962Z,26.70
2022-11-13T23:56:24.598Z,25.73
2022-11-13T23:59:29.564Z,26.23
